Airfield :
LOGIN :

Register | Disclaimer

   EN    FR    IT 

 










Legend :    VFR   Marginal VFR   IFR   Intensive IFR   Very Intensive IFR
Visi :
Ceiling :
>= 8 km
>= 3000ft
5 to 8 km
1000 to 3000 ft
1500m to 5 km
500 to 1000 ft
800 to 1500m
200 to 500 ft
< 800m
< 200 ft
Symbols :   Thunderstorms  Fog  Heavy snow  Heavy precipitations  Wind > 20 kt
SIGMETs :     Misc.  Thunderstorms  Icing  Turbulence  Mountain Waves  Volcanic Ashes






- Airport Elevation : 194 ft


EBCV - Chièvres

CURRENT METAR :
  • 190655Z AUTO VRB01KT 2200 BR NCD 12/12 Q1013 YLO

EXPIRED METARs :
  • 190650Z AUTO VRB01KT 1700 BR NCD 12/12 Q1013 YLO
  • 190639Z AUTO VRB01KT 1500 BR NCD 12/12 Q1013 AMB
  • 190625Z AUTO VRB01KT 1700 BR NCD 11/11 Q1013 YLO
  • 190606Z AUTO VRB01KT 1500 BR NCD 11/10 Q1013 AMB
  • 190544Z AUTO VRB02KT 0600 BR NCD 11/11 Q1012 RED
  • 190534Z AUTO VRB01KT 1500 BR NCD 11/11 Q1012 AMB
  • 190455Z AUTO 01003KT 1200 BR NCD 11/11 Q1012 AMB
  • 190425Z AUTO VRB01KT 1100 FG NCD 11/11 Q1012 AMB
  • 190419Z AUTO VRB01KT 0700 BR NCD 12/11 Q1012 RED

TAF TAF EBCV
Valid from the 19 at 07:00 until the 19 at 16:00 UTC


190610Z 1907/1916 04004KT 9999 FEW045 SCT250
TEMPO 1907/1909 VRB02KT 4000 BR BY EBWM



MET'MAP, your aeronautical weather chart ! - Copyright ORBIFLY December 2007 - Disclaimer

ORBIFLY MET'MAP TEAM :

Programming & Development : Alexandra Zaïnal
Concept & original design : Baudouin d'Aumeries
Assistance for programming : Marc-Olivier Méhu
Technical & hardware support : Manuel Goepfert

Contact : metmap@orbifly.com




SOURCES & CREDITS :

   NOAA